Dades de l'estació automàtica Lladurs
Resum diari
20:00 TU| Temperatura mitjana | 11.5 °C | |
|---|---|---|
| Temperatura màxima | 17.3 °C | 15:41 TU |
| Temperatura mínima | 6.5 °C | 0:41 TU |
| Humitat relativa mitjana | 76% | |
| Precipitació acumulada | 0.0 mm | |
| Ratxa màxima del vent (2 m) | 19.8 km/h - 260º | 15:18 TU |
| Irradiació solar global | 23.8 MJ/m2 | |
El tram horari està expressat en Temps Universal (TU). Cal sumar una hora en horari d'hivern i dues en horari d'estiu per passar a l'hora oficial.
Lladurs
| Municipi | Lladurs |
|---|---|
| Comarca | Solsonès |
| Altitud | 786 m |
| Data alta | 05.05.1998 |
| Estat actual | Operativa |
| Període TU |
TM °C |
TX °C |
TN °C |
HRM % |
PPT mm |
VVM (2 m) km/h |
DVM (2 m) graus |
VVX (2 m) km/h |
RS W/m2 |
|---|---|---|---|---|---|---|---|---|---|
| 00:00 - 00:30 | 6.8 | 7.1 | 6.6 | 99 | 0.0 | 1.4 | 55 | 5.8 | 0 |
| 00:30 - 01:00 | 6.7 | 7.1 | 6.5 | 100 | 0.0 | 0.7 | 71 | 3.6 | 0 |
| 01:00 - 01:30 | 7.4 | 7.6 | 7.1 | 100 | 0.0 | 0.4 | 37 | 2.9 | 0 |
| 01:30 - 02:00 | 7.5 | 7.5 | 7.4 | 98 | 0.0 | 0.7 | 128 | 4.0 | 0 |
| 02:00 - 02:30 | 7.3 | 7.4 | 7.2 | 97 | 0.0 | 0.4 | 125 | 3.2 | 0 |
| 02:30 - 03:00 | 7.1 | 7.3 | 7.0 | 98 | 0.0 | 0.7 | 178 | 3.6 | 0 |
| 03:00 - 03:30 | 6.8 | 7.0 | 6.8 | 98 | 0.0 | 0.0 | 227 | 2.2 | 0 |
| 03:30 - 04:00 | 6.7 | 6.8 | 6.6 | 99 | 0.0 | 0.4 | 182 | 2.5 | 0 |
| 04:00 - 04:30 | 6.8 | 6.8 | 6.8 | 100 | 0.0 | 1.1 | 181 | 2.9 | 0 |
| 04:30 - 05:00 | 6.7 | 6.8 | 6.6 | 100 | 0.0 | 1.1 | 143 | 3.2 | 1 |
| 05:00 - 05:30 | 6.7 | 6.9 | 6.6 | 100 | 0.0 | 1.8 | 188 | 4.3 | 10 |
| 05:30 - 06:00 | 6.9 | 7.1 | 6.8 | 100 | 0.0 | 1.8 | 204 | 5.0 | 32 |
| 06:00 - 06:30 | 6.9 | 7.0 | 6.8 | 100 | 0.0 | 1.8 | 179 | 5.4 | 52 |
| 06:30 - 07:00 | 7.5 | 9.0 | 7.1 | 99 | 0.0 | 1.1 | 153 | 4.3 | 177 |
| 07:00 - 07:30 | 8.8 | 9.8 | 8.0 | 88 | 0.0 | 1.4 | 165 | 5.8 | 378 |
| 07:30 - 08:00 | 10.7 | 11.5 | 9.9 | 79 | 0.0 | 3.6 | 175 | 7.9 | 523 |
| 08:00 - 08:30 | 12.3 | 13.4 | 11.7 | 73 | 0.0 | 4.0 | 193 | 10.1 | 578 |
| 08:30 - 09:00 | 13.6 | 13.9 | 13.2 | 70 | 0.0 | 4.0 | 185 | 9.0 | 758 |
| 09:00 - 09:30 | 13.4 | 14.0 | 12.8 | 71 | 0.0 | 5.8 | 209 | 12.6 | 803 |
| 09:30 - 10:00 | 13.7 | 14.7 | 12.8 | 69 | 0.0 | 6.1 | 213 | 14.8 | 805 |
| 10:00 - 10:30 | 14.2 | 14.8 | 13.0 | 67 | 0.0 | 5.0 | 199 | 11.2 | 927 |
| 10:30 - 11:00 | 14.0 | 14.9 | 13.0 | 66 | 0.0 | 6.5 | 222 | 14.4 | 845 |
| 11:00 - 11:30 | 14.1 | 15.6 | 12.6 | 66 | 0.0 | 6.8 | 228 | 14.0 | 897 |
| 11:30 - 12:00 | 14.7 | 15.2 | 14.1 | 64 | 0.0 | 6.5 | 215 | 14.4 | 933 |
| 12:00 - 12:30 | 14.4 | 15.5 | 13.1 | 62 | 0.0 | 6.5 | 228 | 16.6 | 731 |
| 12:30 - 13:00 | 15.0 | 15.7 | 13.9 | 61 | 0.0 | 6.1 | 224 | 12.6 | 839 |
| 13:00 - 13:30 | 15.0 | 15.8 | 13.9 | 61 | 0.0 | 6.1 | 225 | 15.5 | 610 |
| 13:30 - 14:00 | 16.3 | 17.2 | 15.5 | 57 | 0.0 | 6.5 | 228 | 15.1 | 877 |
| 14:00 - 14:30 | 15.6 | 16.5 | 14.7 | 56 | 0.0 | 6.1 | 231 | 15.1 | 534 |
| 14:30 - 15:00 | 15.9 | 17.0 | 14.9 | 55 | 0.0 | 5.8 | 219 | 14.4 | 526 |
| 15:00 - 15:30 | 15.8 | 16.7 | 14.8 | 54 | 0.0 | 7.6 | 236 | 19.8 | 507 |
| 15:30 - 16:00 | 15.4 | 17.3 | 14.4 | 55 | 0.0 | 6.1 | 245 | 17.6 | 310 |
| 16:00 - 16:30 | 14.9 | 15.4 | 14.6 | 55 | 0.0 | 5.4 | 243 | 13.3 | 164 |
| 16:30 - 17:00 | 14.5 | 14.8 | 14.3 | 57 | 0.0 | 4.7 | 249 | 9.4 | 134 |
| 17:00 - 17:30 | 14.7 | 14.9 | 14.5 | 57 | 0.0 | 6.5 | 237 | 14.4 | 140 |
| 17:30 - 18:00 | 14.5 | 14.7 | 14.3 | 58 | 0.0 | 6.5 | 246 | 12.6 | 98 |
| 18:00 - 18:30 | 14.1 | 14.4 | 13.6 | 59 | 0.0 | 4.3 | 250 | 11.2 | 37 |
| 18:30 - 19:00 | 13.0 | 13.6 | 12.4 | 65 | 0.0 | 2.2 | 261 | 4.0 | 6 |
| 19:00 - 19:30 | 11.9 | 12.3 | 11.5 | 68 | 0.0 | 0.4 | 328 | 2.2 | 0 |
| 19:30 - 20:00 | 11.2 | 11.6 | 11.0 | 72 | 0.0 | 0.7 | 346 | 3.6 | 0 |
| 20:00 - 20:30 | 10.9 | 11.1 | 10.7 | 75 | 0.0 | 0.7 | 60 | 5.0 | 0 |
Les dades en taronja només han passat un control de qualitat automàtic. Resta pendent la seva validació definitiva.